QTR65C OTHH-EDDF
Flight info
| Callsign | QTR65C |
|---|---|
| Flight time | N/A |
| Altitude | 28000 |
| Route | DATRI L564 BAT/N0467F290 L564 MIGMA/N0455F280 M550 MEVDO Y511 ITRUX/N0487F340 Y511 AMRAH/N0494F360 Y511 PMA Z712 WEJ L677 CVO L617 NOZ L551 ANTAR DCT RIGRO DCT DISOR DCT LONTA UL608 DOLEV DCT RADLY DCT SIMBA DCT AKINI T161 DEBHI DEBHI1B |
| Aircraft | A388/J-SADE2E3FGHIJ3J4J5M1RWXY/LB1D1 |
Departure
| Time | N/A |
|---|---|
| Airport | Hamad International Airport (OTHH) |
Arrival
| Time | 2026-04-16 11:45 |
|---|---|
| Airport | Frankfurt Main Airport (EDDF) |
| Time | Latitude | Longitude | Altitude | Speed | Heading |
|---|---|---|---|---|---|
| 2026-04-16 10:57 | 48.12764 | 13.16361 | 36258 ft | 466 kts | 313° |
| 2026-04-16 10:57 | 48.17406 | 13.09674 | 36258 ft | 466 kts | 313° |
| 2026-04-16 10:58 | 48.22078 | 13.02927 | 36257 ft | 465 kts | 312° |
| 2026-04-16 10:58 | 48.26385 | 12.95801 | 36255 ft | 463 kts | 308° |
| 2026-04-16 10:59 | 48.30672 | 12.88576 | 36256 ft | 463 kts | 309° |
| 2026-04-16 10:59 | 48.34951 | 12.81344 | 36257 ft | 463 kts | 308° |
| 2026-04-16 11:00 | 48.39222 | 12.74077 | 36263 ft | 463 kts | 308° |
| 2026-04-16 11:00 | 48.43487 | 12.66794 | 36261 ft | 463 kts | 308° |
| 2026-04-16 11:01 | 48.47722 | 12.59544 | 36259 ft | 463 kts | 308° |
| 2026-04-16 11:01 | 48.51978 | 12.52235 | 36258 ft | 463 kts | 308° |
| 2026-04-16 11:02 | 48.56227 | 12.44919 | 36259 ft | 463 kts | 308° |
| 2026-04-16 11:02 | 48.60478 | 12.37580 | 36256 ft | 463 kts | 308° |
| 2026-04-16 11:03 | 48.64690 | 12.30289 | 36278 ft | 463 kts | 308° |
| 2026-04-16 11:04 | 48.71036 | 12.19254 | 36265 ft | 462 kts | 307° |
| 2026-04-16 11:04 | 48.74364 | 12.11040 | 36263 ft | 457 kts | 291° |
| 2026-04-16 11:05 | 48.76099 | 12.01835 | 36263 ft | 454 kts | 278° |
| 2026-04-16 11:05 | 48.77101 | 11.92440 | 36258 ft | 454 kts | 278° |
| 2026-04-16 11:06 | 48.78133 | 11.82987 | 36261 ft | 454 kts | 278° |
| 2026-04-16 11:06 | 48.79144 | 11.73519 | 36262 ft | 454 kts | 278° |
| 2026-04-16 11:07 | 48.80135 | 11.64107 | 36262 ft | 453 kts | 278° |
| 2026-04-16 11:07 | 48.81119 | 11.54657 | 36262 ft | 453 kts | 278° |
| 2026-04-16 11:08 | 48.82093 | 11.45198 | 36261 ft | 453 kts | 278° |
| 2026-04-16 11:08 | 48.83061 | 11.35732 | 36263 ft | 453 kts | 278° |
| 2026-04-16 11:09 | 48.84367 | 11.26440 | 36260 ft | 454 kts | 290° |
| 2026-04-16 11:09 | 48.87494 | 11.18109 | 36261 ft | 457 kts | 307° |
| 2026-04-16 11:10 | 48.92073 | 11.11360 | 36257 ft | 460 kts | 315° |
| 2026-04-16 11:10 | 48.96791 | 11.04774 | 36268 ft | 460 kts | 315° |
| 2026-04-16 11:11 | 49.01467 | 10.98207 | 36291 ft | 459 kts | 315° |
| 2026-04-16 11:11 | 49.06142 | 10.91634 | 36010 ft | 451 kts | 315° |
| 2026-04-16 11:11 | 49.08434 | 10.88406 | 35752 ft | 448 kts | 315° |
| 2026-04-16 11:12 | 49.10729 | 10.85166 | 35504 ft | 448 kts | 315° |
| 2026-04-16 11:12 | 49.13015 | 10.81934 | 35049 ft | 447 kts | 315° |
| 2026-04-16 11:12 | 49.15294 | 10.78706 | 34230 ft | 449 kts | 315° |
| 2026-04-16 11:12 | 49.17576 | 10.75469 | 33532 ft | 445 kts | 315° |
| 2026-04-16 11:13 | 49.19790 | 10.72328 | 33139 ft | 435 kts | 315° |
| 2026-04-16 11:13 | 49.21942 | 10.69133 | 32576 ft | 428 kts | 312° |
| 2026-04-16 11:13 | 49.23991 | 10.65873 | 32027 ft | 422 kts | 312° |
| 2026-04-16 11:13 | 49.26002 | 10.62631 | 31501 ft | 416 kts | 311° |
| 2026-04-16 11:14 | 49.27990 | 10.59441 | 30941 ft | 412 kts | 311° |
| 2026-04-16 11:14 | 49.29968 | 10.56289 | 30404 ft | 407 kts | 311° |
| 2026-04-16 11:14 | 49.31922 | 10.53188 | 29838 ft | 402 kts | 311° |
| 2026-04-16 11:14 | 49.33852 | 10.50130 | 29328 ft | 396 kts | 311° |
| 2026-04-16 11:15 | 49.35720 | 10.47086 | 28810 ft | 389 kts | 308° |
| 2026-04-16 11:15 | 49.37366 | 10.43814 | 28287 ft | 382 kts | 303° |
| 2026-04-16 11:15 | 49.38841 | 10.40519 | 27806 ft | 377 kts | 303° |
| 2026-04-16 11:15 | 49.40336 | 10.37245 | 27313 ft | 373 kts | 303° |
| 2026-04-16 11:16 | 49.41822 | 10.34005 | 26840 ft | 369 kts | 303° |
| 2026-04-16 11:16 | 49.43286 | 10.30807 | 26356 ft | 365 kts | 303° |
| 2026-04-16 11:16 | 49.44738 | 10.27627 | 25883 ft | 361 kts | 303° |
| 2026-04-16 11:16 | 49.46174 | 10.24472 | 25409 ft | 358 kts | 303° |
| 2026-04-16 11:17 | 49.47595 | 10.21344 | 24937 ft | 356 kts | 303° |
| 2026-04-16 11:17 | 49.49007 | 10.18231 | 24468 ft | 354 kts | 303° |
| 2026-04-16 11:17 | 49.50414 | 10.15125 | 23989 ft | 353 kts | 303° |
| 2026-04-16 11:17 | 49.51818 | 10.12023 | 23460 ft | 351 kts | 303° |
| 2026-04-16 11:18 | 49.53205 | 10.08953 | 23017 ft | 349 kts | 303° |
| 2026-04-16 11:18 | 49.54584 | 10.05900 | 22524 ft | 346 kts | 303° |
| 2026-04-16 11:18 | 49.55955 | 10.02860 | 22053 ft | 344 kts | 303° |
| 2026-04-16 11:18 | 49.57312 | 9.99846 | 21592 ft | 342 kts | 303° |
| 2026-04-16 11:19 | 49.58665 | 9.96840 | 21119 ft | 340 kts | 303° |
| 2026-04-16 11:19 | 49.59996 | 9.93877 | 20645 ft | 339 kts | 303° |
| 2026-04-16 11:19 | 49.61333 | 9.90899 | 20190 ft | 337 kts | 303° |
| 2026-04-16 11:19 | 49.62665 | 9.87928 | 19720 ft | 335 kts | 303° |
| 2026-04-16 11:20 | 49.63988 | 9.84975 | 19257 ft | 334 kts | 302° |
| 2026-04-16 11:20 | 49.65310 | 9.82019 | 18796 ft | 333 kts | 302° |
| 2026-04-16 11:20 | 49.66616 | 9.79094 | 18276 ft | 331 kts | 302° |
| 2026-04-16 11:20 | 49.67927 | 9.76157 | 17806 ft | 329 kts | 303° |
| 2026-04-16 11:21 | 49.69222 | 9.73252 | 17351 ft | 327 kts | 303° |
| 2026-04-16 11:21 | 49.70492 | 9.70403 | 16904 ft | 325 kts | 303° |
| 2026-04-16 11:21 | 49.71771 | 9.67527 | 16431 ft | 323 kts | 303° |
| 2026-04-16 11:21 | 49.73037 | 9.64678 | 15985 ft | 321 kts | 303° |
| 2026-04-16 11:22 | 49.74302 | 9.61828 | 15539 ft | 320 kts | 303° |
| 2026-04-16 11:22 | 49.75556 | 9.58998 | 15059 ft | 319 kts | 303° |
| 2026-04-16 11:22 | 49.76808 | 9.56171 | 14618 ft | 317 kts | 303° |
| 2026-04-16 11:22 | 49.78051 | 9.53363 | 14181 ft | 316 kts | 303° |
| 2026-04-16 11:23 | 49.79292 | 9.50557 | 13700 ft | 314 kts | 303° |
| 2026-04-16 11:23 | 49.80522 | 9.47771 | 13254 ft | 312 kts | 303° |
| 2026-04-16 11:23 | 49.81743 | 9.45001 | 12821 ft | 310 kts | 303° |
| 2026-04-16 11:23 | 49.82943 | 9.42277 | 12390 ft | 308 kts | 303° |
| 2026-04-16 11:24 | 49.84150 | 9.39535 | 11957 ft | 307 kts | 303° |
| 2026-04-16 11:24 | 49.85338 | 9.36787 | 11519 ft | 306 kts | 301° |
| 2026-04-16 11:24 | 49.86312 | 9.33867 | 11103 ft | 304 kts | 292° |
| 2026-04-16 11:24 | 49.87016 | 9.30701 | 10977 ft | 317 kts | 286° |
| 2026-04-16 11:25 | 49.87618 | 9.27407 | 10847 ft | 326 kts | 287° |
| 2026-04-16 11:25 | 49.88270 | 9.24008 | 10775 ft | 320 kts | 287° |
| 2026-04-16 11:25 | 49.88890 | 9.20809 | 10689 ft | 309 kts | 287° |
| 2026-04-16 11:25 | 49.89495 | 9.17676 | 10561 ft | 295 kts | 287° |
| 2026-04-16 11:26 | 49.90068 | 9.14682 | 10436 ft | 283 kts | 287° |
| 2026-04-16 11:26 | 49.90625 | 9.11763 | 10078 ft | 281 kts | 287° |
| 2026-04-16 11:26 | 49.91174 | 9.08883 | 9987 ft | 277 kts | 285° |
| 2026-04-16 11:26 | 49.91718 | 9.06014 | 9926 ft | 275 kts | 285° |
| 2026-04-16 11:27 | 49.92252 | 9.03190 | 9864 ft | 269 kts | 285° |
| 2026-04-16 11:27 | 49.92763 | 9.00480 | 9658 ft | 263 kts | 285° |
| 2026-04-16 11:27 | 49.93271 | 8.97773 | 9535 ft | 262 kts | 285° |
| 2026-04-16 11:27 | 49.93810 | 8.95023 | 9464 ft | 263 kts | 291° |
| 2026-04-16 11:28 | 49.94832 | 8.92730 | 9343 ft | 266 kts | 318° |
| 2026-04-16 11:28 | 49.96469 | 8.91389 | 9208 ft | 270 kts | 345° |
| 2026-04-16 11:28 | 49.98357 | 8.91259 | 9107 ft | 273 kts | 1° |
| 2026-04-16 11:28 | 50.00256 | 8.91427 | 9029 ft | 273 kts | 1° |
| 2026-04-16 11:29 | 50.02095 | 8.92143 | 8902 ft | 277 kts | 26° |
| 2026-04-16 11:29 | 50.03561 | 8.94069 | 8788 ft | 280 kts | 53° |
| 2026-04-16 11:29 | 50.04409 | 8.96772 | 8655 ft | 282 kts | 69° |
| 2026-04-16 11:29 | 50.05023 | 8.99655 | 8543 ft | 281 kts | 72° |
| 2026-04-16 11:30 | 50.05627 | 9.02606 | 8448 ft | 297 kts | 71° |
| 2026-04-16 11:30 | 50.06300 | 9.05734 | 8429 ft | 308 kts | 70° |
| 2026-04-16 11:30 | 50.07010 | 9.08890 | 8355 ft | 307 kts | 70° |
| 2026-04-16 11:30 | 50.07720 | 9.11968 | 8243 ft | 297 kts | 70° |
| 2026-04-16 11:31 | 50.08404 | 9.14916 | 8107 ft | 282 kts | 69° |
| 2026-04-16 11:31 | 50.09066 | 9.17762 | 7771 ft | 276 kts | 69° |
| 2026-04-16 11:31 | 50.09718 | 9.20561 | 7563 ft | 273 kts | 69° |
| 2026-04-16 11:31 | 50.10365 | 9.23347 | 7468 ft | 276 kts | 69° |
| 2026-04-16 11:32 | 50.11017 | 9.26153 | 7354 ft | 275 kts | 69° |
| 2026-04-16 11:32 | 50.11666 | 9.28955 | 7274 ft | 274 kts | 69° |
| 2026-04-16 11:32 | 50.12317 | 9.31769 | 7154 ft | 276 kts | 69° |
| 2026-04-16 11:32 | 50.12954 | 9.34528 | 7048 ft | 272 kts | 69° |
| 2026-04-16 11:33 | 50.13594 | 9.37311 | 6906 ft | 272 kts | 69° |
| 2026-04-16 11:33 | 50.14234 | 9.40093 | 6797 ft | 273 kts | 69° |
| 2026-04-16 11:33 | 50.15085 | 9.42699 | 6672 ft | 270 kts | 47° |
| 2026-04-16 11:33 | 50.16563 | 9.44405 | 6539 ft | 264 kts | 19° |
| 2026-04-16 11:34 | 50.18355 | 9.44809 | 6426 ft | 260 kts | 351° |
| 2026-04-16 11:34 | 50.20052 | 9.43973 | 6303 ft | 256 kts | 333° |
| 2026-04-16 11:34 | 50.21544 | 9.42493 | 6159 ft | 253 kts | 311° |
| 2026-04-16 11:34 | 50.22408 | 9.40142 | 6035 ft | 251 kts | 283° |
| 2026-04-16 11:35 | 50.22447 | 9.37438 | 5920 ft | 252 kts | 257° |
| 2026-04-16 11:35 | 50.21860 | 9.34877 | 5799 ft | 251 kts | 250° |
| 2026-04-16 11:35 | 50.21264 | 9.32353 | 5667 ft | 251 kts | 251° |
| 2026-04-16 11:35 | 50.20679 | 9.29809 | 5545 ft | 248 kts | 251° |
| 2026-04-16 11:36 | 50.20097 | 9.27271 | 5427 ft | 249 kts | 251° |
| 2026-04-16 11:36 | 50.19511 | 9.24719 | 5290 ft | 250 kts | 251° |
| 2026-04-16 11:36 | 50.18926 | 9.22177 | 5162 ft | 247 kts | 251° |
| 2026-04-16 11:36 | 50.18346 | 9.19665 | 5037 ft | 248 kts | 251° |
| 2026-04-16 11:37 | 50.17898 | 9.17062 | 4918 ft | 248 kts | 256° |
| 2026-04-16 11:37 | 50.17430 | 9.14469 | 4799 ft | 247 kts | 252° |
| 2026-04-16 11:37 | 50.16857 | 9.11986 | 4735 ft | 237 kts | 249° |
| 2026-04-16 11:37 | 50.16290 | 9.09671 | 4634 ft | 223 kts | 249° |
| 2026-04-16 11:38 | 50.15747 | 9.07432 | 4367 ft | 220 kts | 249° |
| 2026-04-16 11:38 | 50.15204 | 9.05194 | 4231 ft | 220 kts | 249° |
| 2026-04-16 11:38 | 50.14661 | 9.02957 | 4108 ft | 221 kts | 249° |
| 2026-04-16 11:38 | 50.14299 | 9.01465 | 4034 ft | 221 kts | 249° |
| 2026-04-16 11:39 | 50.13581 | 8.98504 | 3995 ft | 220 kts | 250° |
| 2026-04-16 11:39 | 50.13042 | 8.96275 | 3992 ft | 218 kts | 249° |
| 2026-04-16 11:39 | 50.12688 | 8.94808 | 4002 ft | 215 kts | 249° |
| 2026-04-16 11:39 | 50.12163 | 8.92635 | 3988 ft | 218 kts | 250° |
| 2026-04-16 11:40 | 50.11630 | 8.90429 | 3986 ft | 215 kts | 249° |
| 2026-04-16 11:40 | 50.11106 | 8.88256 | 3983 ft | 209 kts | 250° |
| 2026-04-16 11:40 | 50.10619 | 8.86241 | 3980 ft | 191 kts | 250° |
| 2026-04-16 11:40 | 50.10164 | 8.84350 | 3855 ft | 184 kts | 250° |
| 2026-04-16 11:41 | 50.09715 | 8.82485 | 3589 ft | 183 kts | 249° |
| 2026-04-16 11:41 | 50.09271 | 8.80637 | 3340 ft | 180 kts | 249° |
| 2026-04-16 11:41 | 50.08830 | 8.78804 | 3081 ft | 182 kts | 249° |
| 2026-04-16 11:41 | 50.08392 | 8.76982 | 2856 ft | 182 kts | 250° |
| 2026-04-16 11:42 | 50.07959 | 8.75171 | 2597 ft | 179 kts | 249° |
| 2026-04-16 11:42 | 50.07523 | 8.73362 | 2360 ft | 173 kts | 249° |
| 2026-04-16 11:42 | 50.07131 | 8.71726 | 2137 ft | 150 kts | 249° |
| 2026-04-16 11:42 | 50.06788 | 8.70295 | 1937 ft | 139 kts | 249° |
| 2026-04-16 11:43 | 50.06453 | 8.68902 | 1746 ft | 135 kts | 249° |
| 2026-04-16 11:43 | 50.06121 | 8.67529 | 1558 ft | 137 kts | 249° |
| 2026-04-16 11:43 | 50.05788 | 8.66164 | 1355 ft | 135 kts | 250° |
| 2026-04-16 11:43 | 50.05482 | 8.64777 | 1156 ft | 136 kts | 250° |
| 2026-04-16 11:44 | 50.05151 | 8.63404 | 1022 ft | 136 kts | 247° |
| 2026-04-16 11:44 | 50.04813 | 8.62018 | 834 ft | 136 kts | 247° |
| 2026-04-16 11:44 | 50.04486 | 8.60630 | 682 ft | 138 kts | 248° |
| 2026-04-16 11:44 | 50.04153 | 8.59250 | 478 ft | 135 kts | 246° |
| 2026-04-16 11:45 | 50.03828 | 8.57897 | 369 ft | 126 kts | 246° |
| 2026-04-16 11:45 | 50.03570 | 8.56832 | 361 ft | 86 kts | 250° |
| 2026-04-16 11:45 | 50.03406 | 8.56143 | 358 ft | 61 kts | 249° |
| 2026-04-16 11:45 | 50.03279 | 8.55602 | 353 ft | 46 kts | 248° |
| 2026-04-16 11:46 | 50.03189 | 8.55229 | 359 ft | 30 kts | 254° |
| 2026-04-16 11:46 | 50.03180 | 8.54931 | 353 ft | 24 kts | 281° |
| 2026-04-16 11:46 | 50.03201 | 8.54759 | 344 ft | 16 kts | 279° |
| 2026-04-16 11:46 | 50.03210 | 8.54671 | 349 ft | 3 kts | 278° |
| 2026-04-16 11:47 | 50.03213 | 8.54644 | 349 ft | 3 kts | 295° |
| 2026-04-16 11:47 | 50.03244 | 8.54600 | 351 ft | 6 kts | 349° |
| 2026-04-16 11:47 | 50.03283 | 8.54629 | 354 ft | 8 kts | 49° |
| 2026-04-16 11:47 | 50.03313 | 8.54722 | 355 ft | 12 kts | 70° |
| 2026-04-16 11:48 | 50.03346 | 8.54859 | 351 ft | 15 kts | 69° |
| 2026-04-16 11:48 | 50.03387 | 8.55025 | 358 ft | 18 kts | 69° |
| 2026-04-16 11:48 | 50.03434 | 8.55215 | 355 ft | 20 kts | 69° |
| 2026-04-16 11:48 | 50.03485 | 8.55432 | 353 ft | 22 kts | 71° |
| 2026-04-16 11:49 | 50.03538 | 8.55668 | 359 ft | 24 kts | 70° |
| 2026-04-16 11:49 | 50.03594 | 8.55897 | 362 ft | 24 kts | 69° |
| 2026-04-16 11:49 | 50.03657 | 8.56148 | 361 ft | 25 kts | 69° |
| 2026-04-16 11:49 | 50.03717 | 8.56402 | 364 ft | 26 kts | 71° |
| 2026-04-16 11:50 | 50.03778 | 8.56671 | 359 ft | 27 kts | 68° |
| 2026-04-16 11:50 | 50.03845 | 8.56943 | 365 ft | 26 kts | 70° |
| 2026-04-16 11:50 | 50.03900 | 8.57181 | 369 ft | 21 kts | 71° |
| 2026-04-16 11:50 | 50.03952 | 8.57399 | 371 ft | 22 kts | 69° |
| 2026-04-16 11:51 | 50.04006 | 8.57622 | 374 ft | 23 kts | 70° |
| 2026-04-16 11:51 | 50.04064 | 8.57864 | 371 ft | 25 kts | 70° |
| 2026-04-16 11:51 | 50.04124 | 8.58123 | 375 ft | 26 kts | 70° |
| 2026-04-16 11:51 | 50.04189 | 8.58384 | 377 ft | 26 kts | 69° |
| 2026-04-16 11:52 | 50.04255 | 8.58656 | 379 ft | 27 kts | 69° |
| 2026-04-16 11:52 | 50.04320 | 8.58926 | 380 ft | 26 kts | 70° |
| 2026-04-16 11:52 | 50.04382 | 8.59192 | 381 ft | 26 kts | 70° |
| 2026-04-16 11:52 | 50.04422 | 8.59362 | 381 ft | 14 kts | 70° |
| 2026-04-16 11:53 | 50.04484 | 8.59471 | 380 ft | 13 kts | 9° |
| 2026-04-16 11:53 | 50.04532 | 8.59470 | 379 ft | 0 kts | 356° |
| 2026-04-16 11:54 | 50.04546 | 8.59469 | 379 ft | 6 kts | 356° |
| 2026-04-16 11:54 | 50.04615 | 8.59463 | 378 ft | 12 kts | 357° |
| 2026-04-16 11:55 | 50.04702 | 8.59442 | 377 ft | 14 kts | 343° |
| 2026-04-16 11:55 | 50.04805 | 8.59382 | 378 ft | 18 kts | 339° |
| 2026-04-16 11:55 | 50.04907 | 8.59371 | 377 ft | 15 kts | 6° |
| 2026-04-16 11:55 | 50.05007 | 8.59334 | 370 ft | 14 kts | 340° |
| 2026-04-16 11:56 | 50.05056 | 8.59294 | 371 ft | 7 kts | 310° |
| 2026-04-16 11:56 | 50.05101 | 8.59224 | 366 ft | 8 kts | 341° |
| 2026-04-16 11:56 | 50.05146 | 8.59201 | 372 ft | 6 kts | 340° |
| 2026-04-16 11:56 | 50.05161 | 8.59192 | 369 ft | 2 kts | 339° |
| 2026-04-16 11:57 | 50.05169 | 8.59188 | 368 ft | 1 kts | 339° |
| 2026-04-16 11:57 | 50.05169 | 8.59187 | 368 ft | 0 kts | 339° |